Search for airport 
image banner adimage banner ad
image banner ad

SIUA - Fazenda Barra do Lagoa Airport

Located in Santa Rita Do Pardo, Brazil

ICAO - SIUA, IATA -

Data provided by Airmate  

General information

Coordinates: S30°7'10" W50°51'13"
Elevation is 118 feet MSL.
Magnetic variation is -17° East
View others Airports in Rio Grande do Sul

Operational data

Open for public use
Current time UTC:
Current local time:
Weather at : SBPA - Salgado Filho ( 34 km )
METAR: SBPA 051700Z 12012KT 090V160 9999 OVC040 22/13 Q1021
TAF: TAF SBPA 051000Z 0512/0612 33005KT 8000 SCT020 TX29/0516Z TN21/0609Z BECMG 0513/0515 13009KT BECMG 0601/0603 33005KT RMK PEI
View NOTAMs / SUP AIP / TFR affecting this airport [VIEW]
Communications frequencies: [VIEW]

Runways:

RWY identifierQFULength (ft)Width (ft)SurfaceLDA (ft)
17147665GRASS
35147665GRASS

Airport contact information

Address: Santa Rita Do Pardo Brazil

Satellite view of SIUA